Terminal Aerodrome Forecast
Issued by NWS Wilmington, NC

Home | Current Version | Previous Version | Text Only | Print | Product List | Glossary On
Versions: 1 2 3 4 5 6 7 8 9 10 11 12 13 14 15 16 17 18 19 20 21 22 23
000
FTUS42 KILM 241700
TAFILM
TAF
KILM 241721Z 2418/2518 25014KT P6SM SCT040
     FM242000 23013G18KT P6SM VCTS SCT040CB BKN120
      TEMPO 2420/2424 VRB20KT 3SM TSRA BKN020CB
     FM250200 22005KT P6SM SHRA SCT050 BKN100
     FM250500 25003KT P6SM VCSH SCT030 BKN050
     FM251300 34005KT P6SM VCSH FEW010 SCT030 SCT100=

USA.gov is the U.S. government's official web portal to all federal, state and local government web resources and services.